createdAt,value
2022-10-18T00:02:07.888Z,9.32
2022-10-18T00:04:34.849Z,10.32
2022-10-18T00:07:01.386Z,8.30
2022-10-18T00:09:29.433Z,9.32
2022-10-18T00:11:56.516Z,11.18
2022-10-18T00:14:23.110Z,9.38
2022-10-18T00:16:49.669Z,11.77
2022-10-18T00:19:16.186Z,9.77
2022-10-18T00:24:14.710Z,12.70
2022-10-18T00:26:42.642Z,10.50
2022-10-18T00:29:14.234Z,11.63
2022-10-18T00:31:41.220Z,12.30
2022-10-18T00:34:11.311Z,15.18
2022-10-18T00:36:37.893Z,13.07
2022-10-18T00:39:07.142Z,9.73
2022-10-18T00:41:36.270Z,12.23
2022-10-18T00:44:06.004Z,10.67
2022-10-18T00:46:34.597Z,10.73
2022-10-18T00:49:04.290Z,8.70
2022-10-18T00:51:36.147Z,9.27
2022-10-18T00:54:02.963Z,11.90
2022-10-18T00:56:29.967Z,11.07
2022-10-18T00:58:57.315Z,10.10
2022-10-18T01:01:28.282Z,9.88
2022-10-18T01:03:56.542Z,13.30
2022-10-18T01:06:23.667Z,11.63
2022-10-18T01:09:01.144Z,11.43
2022-10-18T01:11:47.722Z,9.38
2022-10-18T01:14:24.635Z,9.38
2022-10-18T01:16:59.033Z,11.23
2022-10-18T01:19:53.143Z,11.10
2022-10-18T01:22:24.219Z,10.43
2022-10-18T01:25:06.730Z,10.48
2022-10-18T01:27:45.185Z,10.63
2022-10-18T01:30:43.262Z,9.70
2022-10-18T01:33:22.614Z,10.38
2022-10-18T01:35:53.661Z,11.10
2022-10-18T01:38:22.197Z,12.13
2022-10-18T01:40:51.064Z,10.65
2022-10-18T01:43:19.799Z,13.13
2022-10-18T01:45:48.643Z,9.13
2022-10-18T01:48:16.677Z,11.30
2022-10-18T01:50:43.204Z,9.65
2022-10-18T01:53:30.975Z,10.55
2022-10-18T01:56:24.036Z,12.55
2022-10-18T01:59:02.623Z,11.02
2022-10-18T02:01:38.756Z,10.23
2022-10-18T02:04:10.692Z,12.73
2022-10-18T02:06:44.716Z,11.63
2022-10-18T02:09:18.037Z,11.23
2022-10-18T02:11:48.037Z,12.52
2022-10-18T02:14:18.627Z,15.37
2022-10-18T02:16:50.943Z,12.07
2022-10-18T02:21:58.843Z,11.27
2022-10-18T02:24:31.708Z,12.82
2022-10-18T02:26:58.308Z,14.47
2022-10-18T02:29:24.942Z,11.23
2022-10-18T02:31:56.779Z,13.20
2022-10-18T02:34:27.611Z,14.82
2022-10-18T02:36:57.623Z,14.80
2022-10-18T02:39:29.651Z,18.37
2022-10-18T02:41:57.495Z,17.77
2022-10-18T02:44:24.303Z,16.13
2022-10-18T02:46:51.189Z,14.63
2022-10-18T02:49:19.152Z,13.52
2022-10-18T02:51:45.633Z,11.90
2022-10-18T02:54:12.281Z,11.90
2022-10-18T02:56:38.778Z,9.73
2022-10-18T02:59:05.396Z,9.48
2022-10-18T03:01:32.047Z,8.88
2022-10-18T03:03:58.595Z,7.60
2022-10-18T03:06:26.667Z,8.48
2022-10-18T03:08:53.243Z,8.57
2022-10-18T03:11:20.321Z,9.30
2022-10-18T03:13:46.828Z,9.18
2022-10-18T03:16:13.356Z,7.60
2022-10-18T03:18:39.872Z,6.68
2022-10-18T03:21:07.108Z,5.68
2022-10-18T03:23:35.263Z,5.97
2022-10-18T03:26:02.021Z,6.72
2022-10-18T03:28:28.583Z,5.80
2022-10-18T03:31:00.023Z,7.55
2022-10-18T03:33:26.565Z,6.80
2022-10-18T03:35:53.119Z,6.75
2022-10-18T03:38:19.617Z,5.95
2022-10-18T03:40:47.486Z,6.43
2022-10-18T03:43:14.178Z,8.38
2022-10-18T03:45:40.701Z,7.50
2022-10-18T03:48:07.277Z,10.07
2022-10-18T03:50:33.795Z,9.45
2022-10-18T03:53:00.410Z,8.93
2022-10-18T03:55:27.136Z,9.35
2022-10-18T03:57:54.987Z,8.23
2022-10-18T04:00:21.588Z,6.38
2022-10-18T04:02:51.954Z,8.05
2022-10-18T04:05:21.677Z,6.50
2022-10-18T04:07:48.176Z,13.23
2022-10-18T04:10:14.826Z,9.07
2022-10-18T04:12:41.420Z,8.73
2022-10-18T04:15:10.608Z,7.60
2022-10-18T04:17:37.226Z,8.30
2022-10-18T04:20:04.359Z,10.50
2022-10-18T04:22:30.952Z,9.98
2022-10-18T04:24:57.462Z,11.60
2022-10-18T04:27:24.273Z,9.48
2022-10-18T04:29:50.809Z,10.80
2022-10-18T04:32:18.757Z,11.55
2022-10-18T04:34:45.306Z,12.38
2022-10-18T04:37:11.924Z,12.05
2022-10-18T04:39:38.452Z,12.55
2022-10-18T04:42:05.042Z,10.80
2022-10-18T04:44:31.567Z,9.93
2022-10-18T04:46:58.062Z,9.27
2022-10-18T04:49:25.894Z,10.02
2022-10-18T04:51:52.450Z,8.45
2022-10-18T04:54:18.948Z,8.13
2022-10-18T04:56:45.612Z,9.25
2022-10-18T04:59:12.114Z,9.90
2022-10-18T05:01:38.831Z,8.77
2022-10-18T05:04:05.510Z,9.05
2022-10-18T05:06:33.503Z,9.90
2022-10-18T05:09:00.080Z,8.55
2022-10-18T05:11:26.587Z,8.63
2022-10-18T05:13:53.159Z,9.57
2022-10-18T05:16:19.912Z,9.60
2022-10-18T05:18:46.605Z,10.73
2022-10-18T05:21:13.338Z,11.63
2022-10-18T05:23:41.163Z,11.50
2022-10-18T05:26:08.930Z,9.52
2022-10-18T05:28:40.526Z,10.65
2022-10-18T05:31:09.309Z,11.30
2022-10-18T05:33:36.298Z,11.10
2022-10-18T05:36:03.150Z,11.73
2022-10-18T05:38:29.769Z,10.18
2022-10-18T05:40:58.026Z,11.15
2022-10-18T05:43:27.543Z,9.77
2022-10-18T05:45:54.109Z,10.38
2022-10-18T05:48:20.643Z,11.20
2022-10-18T05:50:47.199Z,9.35
2022-10-18T05:53:35.302Z,10.98
2022-10-18T05:56:02.410Z,8.90
2022-10-18T05:58:29.151Z,10.55
2022-10-18T06:00:58.768Z,10.32
2022-10-18T06:03:25.280Z,12.82
2022-10-18T06:05:51.780Z,11.95
2022-10-18T06:08:18.306Z,10.37
2022-10-18T06:10:44.982Z,9.55
2022-10-18T06:13:12.850Z,8.75
2022-10-18T06:15:39.358Z,7.97
2022-10-18T06:18:05.861Z,10.07
2022-10-18T06:20:32.363Z,11.90
2022-10-18T06:22:58.857Z,9.25
2022-10-18T06:25:25.472Z,10.52
2022-10-18T06:27:52.024Z,9.85
2022-10-18T06:30:19.865Z,7.50
2022-10-18T06:32:46.485Z,10.13
2022-10-18T06:35:13.144Z,8.48
2022-10-18T06:37:39.778Z,9.05
2022-10-18T06:40:07.622Z,10.52
2022-10-18T06:42:34.554Z,8.35
2022-10-18T06:45:01.246Z,12.10
2022-10-18T06:47:29.135Z,10.43
2022-10-18T06:49:55.685Z,9.75
2022-10-18T06:52:22.227Z,14.25
2022-10-18T06:54:48.720Z,11.82
2022-10-18T06:57:15.336Z,9.83
2022-10-18T06:59:41.829Z,10.25
2022-10-18T07:02:09.441Z,10.40
2022-10-18T07:04:37.443Z,11.00
2022-10-18T07:07:03.960Z,10.23
2022-10-18T07:09:30.796Z,11.20
2022-10-18T07:11:57.287Z,11.68
2022-10-18T07:14:28.763Z,9.88
2022-10-18T07:16:58.018Z,10.73
2022-10-18T07:19:24.616Z,10.68
2022-10-18T07:21:52.478Z,11.00
2022-10-18T07:24:18.975Z,10.10
2022-10-18T07:26:45.521Z,11.20
2022-10-18T07:29:12.430Z,11.13
2022-10-18T07:31:39.276Z,10.23
2022-10-18T07:34:06.821Z,9.17
2022-10-18T07:36:33.887Z,9.68
2022-10-18T07:39:02.137Z,8.98
2022-10-18T07:41:28.654Z,11.48
2022-10-18T07:43:55.192Z,12.77
2022-10-18T07:46:22.496Z,12.63
2022-10-18T07:48:49.430Z,12.98
2022-10-18T07:51:16.943Z,13.27
2022-10-18T07:53:43.534Z,13.05
2022-10-18T07:56:13.722Z,13.57
2022-10-18T07:58:40.215Z,11.70
2022-10-18T08:01:08.467Z,13.50
2022-10-18T08:03:35.717Z,13.98
2022-10-18T08:06:03.551Z,14.57
2022-10-18T08:08:30.618Z,13.00
2022-10-18T08:11:02.500Z,14.13
2022-10-18T08:13:30.762Z,12.98
2022-10-18T08:16:00.001Z,12.52
2022-10-18T08:18:26.616Z,12.20
2022-10-18T08:20:53.132Z,9.68
2022-10-18T08:23:19.672Z,12.97
2022-10-18T08:25:46.154Z,10.43
2022-10-18T08:28:12.660Z,8.90
2022-10-18T08:30:40.539Z,10.35
2022-10-18T08:33:07.082Z,10.45
2022-10-18T08:35:33.631Z,10.30
2022-10-18T08:38:00.175Z,10.55
2022-10-18T08:40:27.764Z,10.85
2022-10-18T08:43:02.975Z,10.90
2022-10-18T08:45:42.094Z,10.57
2022-10-18T08:48:19.848Z,10.43
2022-10-18T08:50:46.871Z,10.57
2022-10-18T08:53:17.470Z,10.77
2022-10-18T08:55:48.800Z,10.48
2022-10-18T08:58:19.429Z,9.48
2022-10-18T09:00:54.506Z,9.17
2022-10-18T09:03:36.256Z,9.93
2022-10-18T09:06:17.561Z,10.23
2022-10-18T09:09:01.386Z,9.85
2022-10-18T09:11:44.303Z,9.82
2022-10-18T09:14:33.607Z,9.77
2022-10-18T09:17:10.378Z,10.32
2022-10-18T09:19:54.981Z,8.43
2022-10-18T09:22:29.068Z,9.20
2022-10-18T09:25:04.422Z,9.27
2022-10-18T09:27:41.109Z,8.40
2022-10-18T09:30:18.765Z,7.88
2022-10-18T09:32:51.289Z,8.68
2022-10-18T09:35:24.165Z,10.63
2022-10-18T09:37:54.133Z,10.85
2022-10-18T09:40:26.852Z,11.10
2022-10-18T09:42:58.262Z,12.95
2022-10-18T09:45:29.115Z,12.68
2022-10-18T09:48:05.529Z,12.30
2022-10-18T09:50:37.971Z,14.05
2022-10-18T09:53:12.867Z,12.13
2022-10-18T09:55:47.260Z,10.48
2022-10-18T09:58:14.771Z,12.57
2022-10-18T10:00:46.048Z,10.77
2022-10-18T10:03:13.085Z,14.32
2022-10-18T10:05:41.331Z,12.33
2022-10-18T10:08:07.929Z,11.20
2022-10-18T10:10:38.216Z,13.15
2022-10-18T10:13:07.212Z,9.82
2022-10-18T10:15:39.301Z,9.07
2022-10-18T10:18:20.304Z,9.63
2022-10-18T10:20:51.330Z,10.85
2022-10-18T10:23:21.351Z,10.95
2022-10-18T10:25:52.016Z,10.80
2022-10-18T10:28:21.731Z,10.63
2022-10-18T10:30:48.305Z,10.53
2022-10-18T10:33:33.769Z,11.13
2022-10-18T10:36:03.191Z,10.73
2022-10-18T10:38:31.191Z,9.70
2022-10-18T10:40:58.214Z,9.18
2022-10-18T10:43:42.801Z,9.93
2022-10-18T10:46:12.026Z,9.07
2022-10-18T10:48:47.916Z,10.02
2022-10-18T10:51:18.042Z,9.38
2022-10-18T10:53:50.335Z,10.30
2022-10-18T10:56:28.309Z,9.70
2022-10-18T10:58:58.268Z,8.07
2022-10-18T11:01:28.978Z,8.30
2022-10-18T11:03:58.138Z,7.80
2022-10-18T11:06:48.697Z,8.95
2022-10-18T11:09:33.798Z,9.80
2022-10-18T11:12:12.116Z,8.10
2022-10-18T11:14:44.835Z,9.30
2022-10-18T11:17:18.701Z,7.70
2022-10-18T11:19:59.087Z,9.77
2022-10-18T11:22:32.378Z,8.27
2022-10-18T11:24:59.147Z,8.27
2022-10-18T11:27:30.521Z,7.95
2022-10-18T11:30:14.275Z,8.30
2022-10-18T11:32:48.381Z,8.10
2022-10-18T11:35:32.267Z,8.83
2022-10-18T11:38:12.234Z,8.23
2022-10-18T11:40:54.367Z,7.68
2022-10-18T11:43:30.162Z,5.80
2022-10-18T11:46:09.912Z,7.10
2022-10-18T11:48:57.286Z,6.07
2022-10-18T11:51:38.596Z,7.57
2022-10-18T11:57:25.307Z,7.22
2022-10-18T12:00:03.098Z,7.22
2022-10-18T12:03:14.546Z,5.97
2022-10-18T12:05:44.776Z,7.55
2022-10-18T12:08:14.685Z,6.50
2022-10-18T12:11:04.023Z,6.35
2022-10-18T12:13:38.910Z,6.97
2022-10-18T12:16:08.222Z,5.70
2022-10-18T12:18:36.752Z,6.82
2022-10-18T12:21:06.248Z,6.20
2022-10-18T12:23:42.202Z,6.60
2022-10-18T12:26:11.438Z,6.10
2022-10-18T12:28:53.809Z,5.80
2022-10-18T12:31:24.640Z,5.20
2022-10-18T12:33:56.673Z,4.97
2022-10-18T12:36:41.736Z,5.30
2022-10-18T12:39:15.656Z,5.38
2022-10-18T12:41:47.318Z,5.97
2022-10-18T12:44:20.157Z,6.00
2022-10-18T12:46:49.780Z,5.65
2022-10-18T12:49:21.770Z,5.30
2022-10-18T12:51:54.066Z,5.00
2022-10-18T12:54:25.585Z,6.23
2022-10-18T12:56:53.511Z,5.72
2022-10-18T12:59:49.960Z,6.50
2022-10-18T13:02:37.700Z,6.30
2022-10-18T13:05:48.882Z,6.95
2022-10-18T13:08:37.637Z,7.03
2022-10-18T13:11:28.223Z,6.85
2022-10-18T13:14:20.986Z,6.43
2022-10-18T13:16:53.222Z,5.90
2022-10-18T13:19:25.896Z,5.93
2022-10-18T13:22:04.358Z,6.57
2022-10-18T13:24:35.487Z,6.32
2022-10-18T13:27:36.588Z,5.63
2022-10-18T13:30:27.328Z,5.60
2022-10-18T13:33:02.247Z,6.57
2022-10-18T13:35:52.529Z,6.17
2022-10-18T13:38:59.727Z,5.93
2022-10-18T13:41:31.318Z,6.15
2022-10-18T13:44:23.933Z,8.10
2022-10-18T13:47:32.066Z,16.52
2022-10-18T13:53:41.927Z,7.68
2022-10-18T13:56:33.161Z,6.45
2022-10-18T13:59:42.476Z,6.07
2022-10-18T14:02:50.324Z,6.63
2022-10-18T14:05:32.127Z,7.20
2022-10-18T14:08:05.774Z,5.82
2022-10-18T14:11:00.925Z,7.25
2022-10-18T14:13:36.433Z,7.25
2022-10-18T14:16:09.118Z,8.48
2022-10-18T14:18:42.411Z,6.73
2022-10-18T14:21:21.970Z,9.23
2022-10-18T14:23:50.599Z,7.40
2022-10-18T14:26:18.956Z,9.23
2022-10-18T14:29:01.509Z,8.27
2022-10-18T14:31:28.541Z,8.40
2022-10-18T14:33:58.909Z,7.30
2022-10-18T14:36:29.251Z,6.93
2022-10-18T14:38:57.407Z,6.78
2022-10-18T14:41:25.685Z,9.40
2022-10-18T14:43:53.922Z,6.83
2022-10-18T14:46:22.885Z,6.35
2022-10-18T14:48:54.803Z,7.68
2022-10-18T14:51:22.965Z,7.63
2022-10-18T14:53:50.288Z,8.50
2022-10-18T14:56:23.993Z,9.77
2022-10-18T14:58:51.199Z,8.18
2022-10-18T15:01:20.091Z,7.85
2022-10-18T15:03:47.863Z,7.60
2022-10-18T15:06:17.948Z,7.90
2022-10-18T15:08:47.517Z,9.80
2022-10-18T15:11:15.767Z,8.05
2022-10-18T15:13:48.175Z,9.98
2022-10-18T15:16:16.929Z,9.15
2022-10-18T15:18:44.009Z,9.63
2022-10-18T15:21:21.676Z,8.50
2022-10-18T15:23:50.346Z,11.32
2022-10-18T15:26:23.044Z,8.82
2022-10-18T15:28:51.635Z,8.05
2022-10-18T15:31:24.839Z,9.77
2022-10-18T15:33:52.310Z,11.60
2022-10-18T15:36:26.780Z,10.25
2022-10-18T15:39:04.021Z,14.00
2022-10-18T15:41:37.162Z,10.85
2022-10-18T15:44:11.667Z,10.77
2022-10-18T15:46:42.600Z,11.73
2022-10-18T15:49:48.095Z,12.05
2022-10-18T15:52:37.730Z,10.18
2022-10-18T15:55:37.835Z,12.88
2022-10-18T15:58:11.134Z,11.75
2022-10-18T16:00:37.707Z,10.70
2022-10-18T16:03:04.335Z,11.60
2022-10-18T16:05:30.861Z,13.18
2022-10-18T16:07:57.484Z,13.13
2022-10-18T16:10:23.976Z,13.90
2022-10-18T16:12:50.577Z,12.97
2022-10-18T16:15:18.953Z,13.85
2022-10-18T16:17:45.698Z,14.20
2022-10-18T16:20:18.702Z,12.82
2022-10-18T16:22:45.348Z,13.52
2022-10-18T16:25:11.850Z,14.87
2022-10-18T16:27:38.597Z,13.93
2022-10-18T16:30:12.217Z,14.90
2022-10-18T16:32:40.211Z,13.55
2022-10-18T16:35:07.257Z,14.63
2022-10-18T16:37:33.915Z,14.97
2022-10-18T16:40:00.421Z,15.00
2022-10-18T16:42:27.038Z,14.68
2022-10-18T16:44:53.782Z,15.70
2022-10-18T16:47:20.452Z,15.32
2022-10-18T16:49:48.334Z,16.80
2022-10-18T16:52:14.863Z,16.88
2022-10-18T16:54:41.359Z,15.25
2022-10-18T16:57:09.147Z,15.40
2022-10-18T16:59:35.642Z,16.85
2022-10-18T17:02:02.248Z,20.20
2022-10-18T17:04:28.760Z,16.90
2022-10-18T17:06:57.675Z,20.05
2022-10-18T17:09:24.219Z,17.88
2022-10-18T17:11:50.760Z,19.42
2022-10-18T17:14:17.260Z,18.00
2022-10-18T17:16:46.626Z,16.50
2022-10-18T17:19:16.755Z,18.52
2022-10-18T17:21:43.380Z,17.52
2022-10-18T17:24:11.284Z,18.27
2022-10-18T17:26:38.041Z,18.73
2022-10-18T17:29:06.500Z,18.25
2022-10-18T17:31:33.574Z,18.75
2022-10-18T17:34:00.366Z,21.58
2022-10-18T17:36:26.894Z,21.45
2022-10-18T17:38:53.826Z,21.53
2022-10-18T17:41:22.115Z,19.52
2022-10-18T17:43:48.927Z,19.77
2022-10-18T17:46:15.998Z,20.60
2022-10-18T17:48:42.639Z,20.88
2022-10-18T17:51:10.550Z,20.37
2022-10-18T17:53:37.114Z,20.50
2022-10-18T17:56:04.768Z,26.20
2022-10-18T17:58:32.677Z,22.55
2022-10-18T18:01:08.908Z,22.45
2022-10-18T18:03:35.628Z,20.10
2022-10-18T18:06:12.171Z,19.60
2022-10-18T18:08:38.713Z,22.90
2022-10-18T18:11:05.501Z,21.35
2022-10-18T18:13:33.453Z,22.30
2022-10-18T18:16:10.524Z,23.20
2022-10-18T18:18:37.313Z,23.40
2022-10-18T18:21:03.872Z,22.92
2022-10-18T18:23:30.455Z,21.75
2022-10-18T18:25:57.678Z,22.85
2022-10-18T18:28:24.264Z,23.53
2022-10-18T18:30:52.155Z,22.48
2022-10-18T18:33:18.741Z,21.63
2022-10-18T18:35:54.410Z,20.70
2022-10-18T18:38:20.947Z,25.25
2022-10-18T18:40:47.557Z,25.10
2022-10-18T18:43:28.671Z,23.85
2022-10-18T18:45:56.551Z,26.05
2022-10-18T18:48:23.104Z,24.25
2022-10-18T18:50:49.663Z,22.23
2022-10-18T18:53:16.338Z,24.97
2022-10-18T18:55:42.909Z,23.60
2022-10-18T18:58:09.709Z,20.48
2022-10-18T19:00:41.702Z,21.20
2022-10-18T19:03:12.515Z,25.52
2022-10-18T19:05:39.171Z,25.20
2022-10-18T19:08:06.272Z,23.58
2022-10-18T19:10:32.916Z,24.50
2022-10-18T19:12:59.540Z,24.85
2022-10-18T19:15:26.238Z,22.55
2022-10-18T19:17:52.807Z,25.33
2022-10-18T19:20:20.915Z,23.13
2022-10-18T19:22:47.443Z,24.88
2022-10-18T19:25:14.272Z,23.73
2022-10-18T19:27:40.783Z,20.60
2022-10-18T19:30:10.682Z,22.50
2022-10-18T19:32:37.341Z,24.50
2022-10-18T19:35:04.310Z,25.35
2022-10-18T19:37:32.521Z,21.10
2022-10-18T19:39:59.324Z,24.83
2022-10-18T19:42:27.540Z,23.17
2022-10-18T19:44:56.977Z,21.77
2022-10-18T19:47:23.520Z,21.60
2022-10-18T19:49:50.044Z,20.50
2022-10-18T19:52:16.579Z,25.10
2022-10-18T19:54:44.596Z,23.20
2022-10-18T19:57:11.109Z,22.27
2022-10-18T19:59:37.849Z,23.77
2022-10-18T20:02:04.402Z,25.45
2022-10-18T20:04:31.267Z,21.92
2022-10-18T20:06:57.911Z,23.87
2022-10-18T20:09:24.419Z,21.05
2022-10-18T20:11:52.315Z,19.90
2022-10-18T20:14:18.805Z,20.05
2022-10-18T20:16:45.501Z,22.70
2022-10-18T20:19:12.017Z,19.97
2022-10-18T20:21:38.683Z,19.77
2022-10-18T20:24:06.205Z,20.48
2022-10-18T20:26:33.305Z,23.20
2022-10-18T20:29:01.308Z,19.08
2022-10-18T20:31:29.378Z,19.20
2022-10-18T20:33:57.399Z,18.63
2022-10-18T20:36:24.986Z,20.50
2022-10-18T20:38:51.758Z,19.80
2022-10-18T20:41:21.495Z,21.35
2022-10-18T20:43:51.165Z,21.07
2022-10-18T20:46:19.113Z,21.60
2022-10-18T20:48:45.725Z,18.73
2022-10-18T20:51:12.741Z,19.75
2022-10-18T20:53:40.662Z,23.88
2022-10-18T20:56:09.243Z,22.17
2022-10-18T20:58:36.529Z,19.85
2022-10-18T21:01:07.745Z,18.70
2022-10-18T21:03:37.728Z,19.52
2022-10-18T21:06:11.973Z,22.33
2022-10-18T21:08:39.303Z,19.23
2022-10-18T21:11:06.113Z,19.38
2022-10-18T21:13:32.800Z,21.67
2022-10-18T21:16:00.422Z,19.30
2022-10-18T21:18:28.124Z,19.83
2022-10-18T21:21:05.976Z,17.23
2022-10-18T21:23:33.430Z,19.42
2022-10-18T21:25:59.956Z,18.80
2022-10-18T21:28:26.540Z,20.05
2022-10-18T21:30:53.100Z,20.88
2022-10-18T21:33:19.673Z,20.57
2022-10-18T21:35:46.196Z,20.98
2022-10-18T21:38:14.051Z,20.40
2022-10-18T21:40:40.596Z,20.08
2022-10-18T21:43:07.138Z,19.00
2022-10-18T21:45:33.744Z,18.13
2022-10-18T21:48:00.315Z,20.08
2022-10-18T21:50:26.879Z,17.20
2022-10-18T21:52:53.379Z,18.00
2022-10-18T21:55:21.294Z,20.35
2022-10-18T21:57:47.823Z,20.60
2022-10-18T22:00:16.066Z,19.80
2022-10-18T22:02:42.576Z,18.02
2022-10-18T22:05:11.338Z,17.70
2022-10-18T22:07:38.779Z,17.33
2022-10-18T22:10:06.124Z,17.43
2022-10-18T22:12:33.996Z,17.80
2022-10-18T22:15:00.559Z,19.15
2022-10-18T22:17:27.099Z,16.70
2022-10-18T22:19:53.600Z,16.75
2022-10-18T22:22:20.162Z,18.00
2022-10-18T22:24:48.067Z,17.25
2022-10-18T22:27:14.708Z,17.20
2022-10-18T22:29:42.618Z,18.98
2022-10-18T22:32:09.248Z,16.55
2022-10-18T22:34:35.772Z,17.60
2022-10-18T22:37:02.323Z,16.40
2022-10-18T22:39:28.932Z,19.67
2022-10-18T22:41:55.480Z,17.63
2022-10-18T22:44:22.055Z,15.55
2022-10-18T22:46:49.956Z,15.30
2022-10-18T22:49:16.492Z,16.85
2022-10-18T22:51:43.055Z,16.35
2022-10-18T22:54:10.103Z,17.90
2022-10-18T22:56:36.646Z,18.48
2022-10-18T22:59:03.451Z,16.37
2022-10-18T23:01:30.081Z,16.33
2022-10-18T23:04:00.576Z,15.70
2022-10-18T23:06:29.230Z,20.95
2022-10-18T23:08:59.475Z,19.35
2022-10-18T23:11:27.130Z,18.40
2022-10-18T23:13:54.466Z,17.20
2022-10-18T23:16:21.418Z,15.50
2022-10-18T23:18:49.722Z,17.42
2022-10-18T23:21:18.444Z,16.38
2022-10-18T23:23:45.047Z,16.33
2022-10-18T23:26:14.008Z,17.40
2022-10-18T23:28:42.710Z,15.25
2022-10-18T23:31:11.860Z,13.80
2022-10-18T23:33:39.337Z,13.88
2022-10-18T23:36:07.726Z,11.73
2022-10-18T23:38:37.379Z,13.40
2022-10-18T23:41:04.142Z,15.73
2022-10-18T23:43:30.687Z,12.77
2022-10-18T23:45:57.271Z,16.08
2022-10-18T23:48:24.227Z,11.97
2022-10-18T23:50:50.961Z,10.68
2022-10-18T23:53:17.891Z,10.75
2022-10-18T23:55:52.957Z,13.65
2022-10-18T23:58:19.508Z,18.08
